Time;durP1;ratioP1;P1;durP2;ratioP2;P2;SDS_P1;SDS_P2;PMS_P1;PMS_P2;Temp;Humidity;BMP_temperature;BMP_pressure;BME280_temperature;BME280_humidity;BME280_pressure;Samples;Min_cycle;Max_cycle;Signal;HPM_P1;HPM_P2
2023/09/07 00:00:12;;;;;;;4.60;1.73;;;;;;;17.00;100.00;101901.44;5053017;28;20449;-70
2023/09/07 00:02:40;;;;;;;4.70;2.50;;;;;;;16.98;100.00;101900.13;5052966;28;20440;-71
2023/09/07 00:05:08;;;;;;;3.20;1.30;;;;;;;16.99;100.00;101902.53;5052972;28;20442;-71
2023/09/07 00:07:34;;;;;;;3.90;1.87;;;;;;;16.93;100.00;101898.31;5052576;28;20486;-71
2023/09/07 00:10:01;;;;;;;4.93;1.93;;;;;;;16.95;100.00;101903.47;5054774;28;20500;-69
2023/09/07 00:12:28;;;;;;;3.50;1.50;;;;;;;16.95;100.00;101903.47;5056711;28;20521;-70
2023/09/07 00:14:55;;;;;;;3.00;1.53;;;;;;;16.94;100.00;101901.88;5056619;28;20481;-71
2023/09/07 00:17:22;;;;;;;3.60;1.73;;;;;;;16.92;100.00;101899.44;5056908;28;20469;-72
2023/09/07 00:19:50;;;;;;;4.47;2.23;;;;;;;16.93;100.00;101905.72;5056922;28;20448;-72
2023/09/07 00:22:18;;;;;;;5.20;1.57;;;;;;;16.93;100.00;101908.47;5056551;28;20470;-71
2023/09/07 00:24:45;;;;;;;4.37;1.53;;;;;;;16.88;100.00;101898.44;5056509;28;20430;-71
2023/09/07 00:27:11;;;;;;;6.00;2.13;;;;;;;16.83;100.00;101887.63;5056043;28;20462;-71
2023/09/07 00:29:38;;;;;;;3.87;1.83;;;;;;;16.82;100.00;101897.78;5056368;28;20446;-71
2023/09/07 00:32:06;;;;;;;3.93;1.80;;;;;;;16.79;100.00;101901.13;5056397;28;20521;-70
2023/09/07 00:34:32;;;;;;;2.87;1.10;;;;;;;16.78;100.00;101899.50;5055902;28;20922;-71
2023/09/07 00:37:01;;;;;;;3.90;1.60;;;;;;;16.75;100.00;101900.13;5056187;28;20458;-70
2023/09/07 00:39:28;;;;;;;3.57;1.90;;;;;;;16.77;100.00;101903.34;5056362;28;20518;-74
2023/09/07 00:41:55;;;;;;;3.07;1.20;;;;;;;16.74;100.00;101900.44;5056193;28;20875;-72
2023/09/07 00:44:21;;;;;;;2.73;1.30;;;;;;;16.70;100.00;101905.69;5056071;28;20877;-72
2023/09/07 00:46:48;;;;;;;3.67;1.73;;;;;;;16.68;100.00;101907.91;5055948;28;20545;-72
2023/09/07 00:49:15;;;;;;;4.20;2.00;;;;;;;16.66;100.00;101910.16;5055751;28;20448;-70
2023/09/07 00:51:42;;;;;;;4.40;2.13;;;;;;;16.61;100.00;101902.09;5055570;28;20953;-70
2023/09/07 00:54:10;;;;;;;3.70;1.70;;;;;;;16.59;100.00;101905.09;5055955;28;20529;-70
2023/09/07 00:56:37;;;;;;;5.03;2.10;;;;;;;16.59;100.00;101907.84;5055741;28;20906;-70
2023/09/07 00:59:04;;;;;;;4.83;1.60;;;;;;;16.56;100.00;101894.81;5055846;28;20816;-71
2023/09/07 01:01:33;;;;;;;4.63;2.03;;;;;;;16.57;100.00;101893.69;5055815;28;20446;-71
2023/09/07 01:03:59;;;;;;;3.90;2.03;;;;;;;16.57;100.00;101899.16;5055472;28;21020;-70
2023/09/07 01:06:30;;;;;;;4.00;2.03;;;;;;;16.53;100.00;101900.06;5055608;28;20542;-69
2023/09/07 01:09:02;;;;;;;3.30;1.70;;;;;;;16.50;100.00;101895.22;5055658;28;20434;-69
2023/09/07 01:11:37;;;;;;;3.30;1.70;;;;;;;16.47;100.00;101893.09;5055401;28;20422;-69
2023/09/07 01:14:04;;;;;;;4.37;2.13;;;;;;;16.43;100.00;101898.38;5055831;28;20427;-69
2023/09/07 01:16:33;;;;;;;3.37;1.70;;;;;;;16.42;100.00;101890.47;5055548;28;20671;-69
2023/09/07 01:19:01;;;;;;;4.27;1.63;;;;;;;16.41;100.00;101900.59;5055496;28;20482;-69
2023/09/07 01:21:28;;;;;;;5.83;2.13;;;;;;;16.40;100.00;101888.06;5055054;28;20524;-69
2023/09/07 01:23:58;;;;;;;4.50;1.70;;;;;;;16.38;100.00;101891.09;5055023;28;20442;-69
2023/09/07 01:26:24;;;;;;;3.10;1.53;;;;;;;16.36;100.00;101896.06;5055253;28;20486;-71
2023/09/07 01:28:51;;;;;;;4.87;2.00;;;;;;;16.33;100.00;101888.47;5054978;28;20500;-69
2023/09/07 01:31:18;;;;;;;3.90;2.07;;;;;;;16.32;100.00;101881.38;5055250;28;20938;-72
2023/09/07 01:33:45;;;;;;;3.70;1.77;;;;;;;16.27;100.00;101894.38;5055215;28;20534;-72
2023/09/07 01:36:12;;;;;;;3.90;1.87;;;;;;;16.21;100.00;101888.22;5054982;28;20565;-72
2023/09/07 01:38:38;;;;;;;2.90;1.33;;;;;;;16.25;100.00;101891.16;5054761;28;20446;-70
2023/09/07 01:41:06;;;;;;;4.83;1.70;;;;;;;16.19;100.00;101887.69;5055414;28;20474;-70
2023/09/07 01:43:34;;;;;;;5.13;2.07;;;;;;;16.18;100.00;101886.09;5054918;28;20446;-70
2023/09/07 01:46:01;;;;;;;4.50;2.40;;;;;;;16.21;100.00;101888.22;5054888;28;20542;-70
2023/09/07 01:48:27;;;;;;;6.17;1.90;;;;;;;16.22;100.00;101891.75;5054580;28;21002;-70
2023/09/07 01:50:54;;;;;;;4.70;2.17;;;;;;;16.16;100.00;101891.06;5054843;28;20481;-69
2023/09/07 01:53:21;;;;;;;3.60;1.90;;;;;;;16.14;100.00;101896.00;5054437;28;20446;-69
2023/09/07 01:55:47;;;;;;;5.03;2.03;;;;;;;16.18;100.00;101896.22;5054391;28;20569;-71
2023/09/07 01:58:15;;;;;;;4.83;1.93;;;;;;;16.11;100.00;101893.88;5054709;28;20442;-70
2023/09/07 02:00:42;;;;;;;8.83;1.93;;;;;;;16.11;100.00;101897.44;5054651;28;20474;-72
2023/09/07 02:03:09;;;;;;;5.30;2.60;;;;;;;16.09;100.00;101893.38;5054684;28;20467;-71
2023/09/07 02:05:36;;;;;;;4.03;2.03;;;;;;;16.07;100.00;101895.59;5054245;28;21011;-72
2023/09/07 02:08:03;;;;;;;2.80;1.60;;;;;;;16.08;100.00;101889.03;5054603;28;20521;-69
2023/09/07 02:10:31;;;;;;;3.37;1.90;;;;;;;16.06;100.00;101899.47;5054521;28;20517;-70
2023/09/07 02:12:58;;;;;;;4.90;1.73;;;;;;;16.02;100.00;101887.50;5054480;28;20461;-70
2023/09/07 02:15:26;;;;;;;5.47;2.57;;;;;;;15.99;100.00;101883.50;5054269;28;20535;-71
2023/09/07 02:17:52;;;;;;;3.40;1.50;;;;;;;16.01;100.00;101883.16;5054338;28;20470;-71
2023/09/07 02:20:20;;;;;;;3.70;1.67;;;;;;;15.98;100.00;101887.34;5054322;28;20529;-72
2023/09/07 02:22:46;;;;;;;4.13;1.97;;;;;;;15.95;100.00;101885.22;5054227;28;20447;-71
2023/09/07 02:25:13;;;;;;;4.30;2.30;;;;;;;15.95;100.00;101881.66;5054224;28;20484;-71
2023/09/07 02:27:41;;;;;;;3.13;1.57;;;;;;;15.94;100.00;101880.88;5054091;28;20485;-71
2023/09/07 02:30:08;;;;;;;4.40;2.13;;;;;;;15.91;100.00;101888.84;5053918;28;20450;-71
2023/09/07 02:32:36;;;;;;;4.40;1.90;;;;;;;15.85;100.00;101890.91;5053397;28;20462;-71
2023/09/07 02:35:04;;;;;;;3.93;1.87;;;;;;;15.85;100.00;101875.31;5053715;28;20878;-71
2023/09/07 02:37:30;;;;;;;3.83;2.00;;;;;;;15.88;100.00;101882.06;5053963;28;20462;-71
2023/09/07 02:39:57;;;;;;;4.60;2.00;;;;;;;15.85;100.00;101880.78;5053630;28;21013;-71
2023/09/07 02:42:24;;;;;;;4.83;2.23;;;;;;;15.87;100.00;101875.78;5053923;28;20444;-71
2023/09/07 02:44:51;;;;;;;4.83;2.10;;;;;;;15.86;100.00;101881.56;5053897;28;20965;-71
2023/09/07 02:47:17;;;;;;;3.97;1.97;;;;;;;15.86;100.00;101889.78;5053774;28;20486;-71
2023/09/07 02:49:45;;;;;;;5.60;2.37;;;;;;;15.85;100.00;101886.22;5053501;28;20953;-71
2023/09/07 02:52:12;;;;;;;4.03;2.10;;;;;;;15.79;100.00;101889.34;5053486;28;20482;-71
2023/09/07 02:54:39;;;;;;;3.80;2.07;;;;;;;15.79;100.00;101892.09;5053744;28;20442;-71
2023/09/07 02:57:05;;;;;;;7.77;2.40;;;;;;;15.74;100.00;101886.72;5053310;28;21017;-71
2023/09/07 02:59:32;;;;;;;4.93;2.73;;;;;;;15.76;100.00;101890.78;5053802;28;20525;-71
2023/09/07 03:01:58;;;;;;;3.80;1.70;;;;;;;15.72;100.00;101888.97;5053689;28;20865;-71
2023/09/07 03:04:25;;;;;;;4.10;1.67;;;;;;;15.70;100.00;101896.66;5053638;28;20434;-71
2023/09/07 03:06:53;;;;;;;4.83;2.57;;;;;;;15.74;100.00;101881.28;5053084;28;20864;-71
2023/09/07 03:09:20;;;;;;;5.00;2.10;;;;;;;15.73;100.00;101888.66;5053202;28;20922;-71
2023/09/07 03:11:46;;;;;;;4.43;2.17;;;;;;;15.75;100.00;101891.88;5053569;28;20533;-71
2023/09/07 03:14:13;;;;;;;4.07;2.00;;;;;;;15.69;100.00;101884.91;5053514;28;20438;-71
2023/09/07 03:16:39;;;;;;;3.37;1.63;;;;;;;15.71;100.00;101893.59;5053327;28;20493;-71
2023/09/07 03:19:06;;;;;;;3.53;1.60;;;;;;;15.68;100.00;101894.22;5053428;28;20478;-71
2023/09/07 03:21:33;;;;;;;4.93;2.20;;;;;;;15.70;100.00;101896.66;5053182;28;20478;-71
2023/09/07 03:24:01;;;;;;;3.90;1.60;;;;;;;15.69;100.00;101895.03;5053541;28;20449;-71
2023/09/07 03:26:28;;;;;;;3.70;2.17;;;;;;;15.66;100.00;101887.44;5053353;28;20481;-71
2023/09/07 03:28:54;;;;;;;5.37;2.50;;;;;;;15.64;100.00;101890.47;5053434;28;20517;-71
2023/09/07 03:31:21;;;;;;;5.33;2.00;;;;;;;15.63;100.00;101897.03;5053419;28;20442;-71
2023/09/07 03:33:48;;;;;;;4.60;2.07;;;;;;;15.59;100.00;101896.81;5053038;28;20437;-71
2023/09/07 03:36:14;;;;;;;3.50;1.87;;;;;;;15.57;100.00;101892.75;5052885;28;20846;-71
2023/09/07 03:38:41;;;;;;;4.87;2.13;;;;;;;15.53;100.00;101889.00;5053253;28;20434;-71
2023/09/07 03:41:09;;;;;;;3.37;1.57;;;;;;;15.52;100.00;101887.41;5053259;28;20441;-71
2023/09/07 03:43:36;;;;;;;3.43;2.00;;;;;;;15.46;100.00;101889.44;5054456;28;20441;-70
2023/09/07 03:46:02;;;;;;;3.57;1.63;;;;;;;15.39;100.00;101895.28;5057192;28;20526;-72
2023/09/07 03:48:29;;;;;;;3.43;1.60;;;;;;;15.42;100.00;101901.25;5057279;28;20446;-72
2023/09/07 03:50:56;;;;;;;3.70;2.00;;;;;;;15.41;100.00;101895.00;5056799;28;20442;-71
2023/09/07 03:53:22;;;;;;;4.27;1.40;;;;;;;15.34;100.00;101900.81;5056772;28;20537;-71
2023/09/07 03:55:49;;;;;;;4.87;2.10;;;;;;;15.34;100.00;101895.38;5056888;28;20497;-71
2023/09/07 03:58:17;;;;;;;3.70;1.70;;;;;;;15.29;100.00;101900.91;5057013;28;20437;-71
2023/09/07 04:00:45;;;;;;;5.37;1.70;;;;;;;15.27;100.00;101896.88;5056957;28;20533;-71
2023/09/07 04:03:12;;;;;;;3.67;1.60;;;;;;;15.25;100.00;101902.63;5057079;28;20949;-71
2023/09/07 04:05:39;;;;;;;4.80;2.13;;;;;;;15.21;100.00;101892.63;5056550;28;20523;-71
2023/09/07 04:08:07;;;;;;;4.00;1.80;;;;;;;15.21;100.00;101904.34;5056901;28;20438;-71
2023/09/07 04:10:34;;;;;;;3.20;1.43;;;;;;;15.19;100.00;101909.31;5056583;28;20450;-71
2023/09/07 04:13:00;;;;;;;4.33;2.00;;;;;;;15.20;100.00;101904.66;5056751;28;20473;-71
2023/09/07 04:15:31;;;;;;;4.90;1.50;;;;;;;15.18;100.00;101901.41;5056621;28;20527;-70
2023/09/07 04:17:57;;;;;;;4.20;1.97;;;;;;;15.23;100.00;101902.13;5056741;28;20496;-71
2023/09/07 04:20:26;;;;;;;4.67;2.60;;;;;;;15.26;100.00;101904.25;5056743;28;20464;-71
2023/09/07 04:22:52;;;;;;;3.80;2.17;;;;;;;15.25;100.00;101902.63;5056718;28;20446;-71
2023/09/07 04:25:20;;;;;;;3.60;1.60;;;;;;;15.17;100.00;101903.31;5056715;28;20442;-71
2023/09/07 04:27:47;;;;;;;6.90;1.97;;;;;;;15.17;100.00;101910.69;5056398;28;20438;-71
2023/09/07 04:30:13;;;;;;;4.50;2.13;;;;;;;15.09;100.00;101910.25;5056526;28;20450;-71
2023/09/07 04:32:41;;;;;;;3.73;1.83;;;;;;;15.11;100.00;101913.50;5056369;28;20446;-71
2023/09/07 04:35:08;;;;;;;3.70;1.70;;;;;;;15.12;100.00;101906.13;5055987;28;20529;-71
2023/09/07 04:37:35;;;;;;;12.23;2.50;;;;;;;15.06;100.00;101912.81;5056129;28;20490;-70
2023/09/07 04:40:02;;;;;;;3.43;1.57;;;;;;;14.95;100.00;101914.88;5055948;28;20518;-70
2023/09/07 04:42:29;;;;;;;3.27;1.80;;;;;;;14.90;100.00;101923.13;5056194;28;20442;-70
2023/09/07 04:44:55;;;;;;;5.47;2.10;;;;;;;14.90;100.00;101920.41;5056111;28;20442;-70
2023/09/07 04:47:22;;;;;;;4.70;1.50;;;;;;;14.94;100.00;101912.44;5056011;28;20546;-71
2023/09/07 04:49:51;;;;;;;4.37;2.10;;;;;;;14.93;100.00;101922.56;5055693;28;20942;-71
2023/09/07 04:52:18;;;;;;;4.97;1.80;;;;;;;14.95;100.00;101911.34;5055582;28;20457;-71
2023/09/07 04:54:45;;;;;;;4.47;2.20;;;;;;;15.01;100.00;101913.69;5055335;28;20526;-71
2023/09/07 04:57:12;;;;;;;5.03;2.27;;;;;;;15.00;100.00;101922.16;5055706;28;20573;-71
2023/09/07 04:59:38;;;;;;;5.03;2.37;;;;;;;15.04;100.00;101924.00;5055864;28;20533;-71
2023/09/07 05:02:05;;;;;;;4.00;2.30;;;;;;;15.06;100.00;101931.91;5055866;28;20584;-71
2023/09/07 05:04:32;;;;;;;5.07;2.40;;;;;;;15.08;100.00;101935.94;5055749;28;20443;-71
2023/09/07 05:07:03;;;;;;;4.07;1.67;;;;;;;15.13;100.00;101930.41;5055397;28;20450;-70
2023/09/07 05:09:30;;;;;;;4.13;1.93;;;;;;;15.16;100.00;101936.38;5055628;28;20435;-70
2023/09/07 05:11:56;;;;;;;4.17;1.90;;;;;;;15.20;100.00;101930.03;5055319;28;20439;-70
2023/09/07 05:14:24;;;;;;;5.50;2.10;;;;;;;15.21;100.00;101928.09;5055599;28;20445;-70
2023/09/07 05:16:50;;;;;;;5.10;2.53;;;;;;;15.27;100.00;101932.34;5055618;28;20486;-70
2023/09/07 05:19:17;;;;;;;3.97;1.97;;;;;;;15.32;100.00;101930.38;5055542;28;20488;-69
2023/09/07 05:21:44;;;;;;;5.43;2.20;;;;;;;15.33;100.00;101931.97;5055414;28;20442;-69
2023/09/07 05:24:14;;;;;;;4.30;2.17;;;;;;;15.39;100.00;101930.75;5055438;28;20813;-69
2023/09/07 05:26:41;;;;;;;5.27;2.97;;;;;;;15.46;100.00;101929.59;5055273;28;20579;-69
2023/09/07 05:29:07;;;;;;;4.10;2.07;;;;;;;15.56;100.00;101929.38;5055014;28;20886;-69
2023/09/07 05:31:34;;;;;;;4.70;2.10;;;;;;;15.67;100.00;101933.59;5054978;28;20482;-69
2023/09/07 05:34:01;;;;;;;4.50;1.90;;;;;;;15.76;100.00;101923.56;5055235;28;20470;-69
2023/09/07 05:36:28;;;;;;;4.30;2.10;;;;;;;15.89;100.00;101933.69;5055047;28;20490;-69
2023/09/07 05:38:54;;;;;;;3.83;2.10;;;;;;;16.00;100.00;101934.28;5055131;28;20529;-69
2023/09/07 05:41:22;;;;;;;6.37;2.50;;;;;;;16.12;100.00;101931.06;5054891;28;20430;-69
2023/09/07 05:43:49;;;;;;;6.33;2.87;;;;;;;16.24;100.00;101933.25;5055029;28;20438;-69
2023/09/07 05:46:16;;;;;;;5.47;2.77;;;;;;;16.33;100.00;101934.94;5054697;28;20461;-69
2023/09/07 05:48:42;;;;;;;4.10;2.07;;;;;;;16.42;100.00;101943.25;5054891;28;20530;-69
2023/09/07 05:53:40;;;;;;;4.60;2.47;;;;;;;16.61;100.00;101938.44;5033456;28;20502;-68
2023/09/07 05:56:06;;;;;;;5.20;2.67;;;;;;;16.70;100.00;101944.00;5034736;28;20620;-68
2023/09/07 05:58:34;;;;;;;4.80;2.53;;;;;;;16.79;100.00;101944.09;5034488;28;20443;-68
2023/09/07 06:01:01;;;;;;;4.30;1.73;;;;;;;16.87;100.00;101946.91;5034819;28;20439;-68
2023/09/07 06:03:27;;;;;;;4.83;2.03;;;;;;;16.95;100.00;101953.56;5034773;28;20543;-69
2023/09/07 06:05:54;;;;;;;5.00;2.93;;;;;;;17.05;100.00;101947.03;5035210;28;20485;-69
2023/09/07 06:08:21;;;;;;;5.10;2.23;;;;;;;17.15;100.00;101952.25;5034447;28;21012;-68
2023/09/07 06:10:47;;;;;;;4.97;2.33;;;;;;;17.21;100.00;101952.94;5034208;28;20899;-71
2023/09/07 06:13:14;;;;;;;4.90;2.17;;;;;;;17.27;100.00;101952.50;5034238;28;20950;-71
2023/09/07 06:15:42;;;;;;;3.27;1.93;;;;;;;17.36;100.00;101953.38;5034416;28;20850;-70
2023/09/07 06:18:09;;;;;;;3.50;1.87;;;;;;;17.46;100.00;101955.03;5034307;28;20561;-71
2023/09/07 06:20:36;;;;;;;4.87;2.00;;;;;;;17.55;100.00;101952.34;5034405;28;20471;-71
2023/09/07 06:23:02;;;;;;;4.90;1.80;;;;;;;17.61;100.00;101964.75;5034007;28;20957;-68
2023/09/07 06:25:29;;;;;;;6.20;2.37;;;;;;;17.68;100.00;101953.38;5034271;28;20529;-68
2023/09/07 06:27:55;;;;;;;3.43;1.93;;;;;;;17.75;100.00;101954.56;5033949;28;20471;-69
2023/09/07 06:30:22;;;;;;;5.57;2.37;;;;;;;17.81;100.00;101958.78;5034242;28;20451;-68
2023/09/07 06:32:51;;;;;;;4.03;2.27;;;;;;;17.89;100.00;101958.00;5034217;28;20494;-68
2023/09/07 06:35:18;;;;;;;7.00;2.40;;;;;;;18.00;100.00;101957.72;5033720;28;20952;-68
2023/09/07 06:37:45;;;;;;;4.27;2.30;;;;;;;18.07;100.00;101961.63;5033745;28;20483;-69
2023/09/07 06:40:13;;;;;;;4.60;1.93;;;;;;;18.18;100.00;101967.59;5034033;28;20493;-68
2023/09/07 06:42:40;;;;;;;4.07;1.70;;;;;;;18.26;100.00;101958.59;5034003;28;20526;-68
2023/09/07 06:45:08;;;;;;;4.20;2.33;;;;;;;18.36;100.00;101962.97;5034032;28;20479;-66
2023/09/07 06:47:35;;;;;;;6.20;2.10;;;;;;;18.45;100.00;101955.56;5033874;28;20821;-68
2023/09/07 06:50:03;;;;;;;5.90;2.10;;;;;;;18.56;100.00;101967.03;5033660;28;20449;-69
2023/09/07 06:52:30;;;;;;;4.87;1.97;;;;;;;18.63;100.00;101967.34;5033908;28;20478;-69
2023/09/07 06:54:56;;;;;;;3.67;1.83;;;;;;;18.75;100.00;101973.06;5033529;28;20539;-69
2023/09/07 06:57:23;;;;;;;5.43;2.07;;;;;;;18.84;100.00;101967.56;5033645;28;20818;-68
2023/09/07 06:59:50;;;;;;;4.90;2.33;;;;;;;18.92;100.00;101972.25;5033478;28;20465;-69
2023/09/07 07:02:16;;;;;;;5.97;2.40;;;;;;;18.98;100.00;101973.69;5033751;28;20436;-69
2023/09/07 07:04:44;;;;;;;4.00;1.63;;;;;;;19.08;100.00;101976.13;5033407;28;20534;-69
2023/09/07 07:07:13;;;;;;;4.27;2.40;;;;;;;19.16;100.00;101964.31;5033631;28;20897;-69
2023/09/07 07:09:39;;;;;;;3.37;2.13;;;;;;;19.25;100.00;101972.53;5033628;28;20530;-68
2023/09/07 07:12:06;;;;;;;5.00;2.30;;;;;;;19.35;100.00;101977.72;5033552;28;20434;-68
2023/09/07 07:14:33;;;;;;;7.17;2.27;;;;;;;19.46;100.00;101982.84;5033258;28;20953;-68
2023/09/07 07:17:01;;;;;;;4.23;1.70;;;;;;;19.55;99.99;101978.94;5033461;28;20487;-68
2023/09/07 07:19:28;;;;;;;4.77;2.30;;;;;;;19.64;98.99;101978.94;5032811;28;20996;-68
2023/09/07 07:21:54;;;;;;;5.20;2.23;;;;;;;19.77;98.07;101980.69;5033460;28;20528;-68
2023/09/07 07:24:22;;;;;;;5.50;2.50;;;;;;;19.88;97.44;101981.94;5033472;28;20530;-68
2023/09/07 07:26:49;;;;;;;3.87;1.77;;;;;;;19.99;96.53;101979.63;5033004;28;20984;-68
2023/09/07 07:29:16;;;;;;;4.50;2.27;;;;;;;20.09;96.03;101975.69;5033640;28;20454;-70
2023/09/07 07:31:42;;;;;;;4.30;2.50;;;;;;;20.20;95.48;101976.13;5033323;28;20447;-68
2023/09/07 07:34:09;;;;;;;8.37;2.40;;;;;;;20.32;93.39;101981.69;5033334;28;20447;-68
2023/09/07 07:36:36;;;;;;;3.70;1.90;;;;;;;20.41;93.15;101988.78;5032891;28;20467;-68
2023/09/07 07:39:03;;;;;;;3.57;1.50;;;;;;;20.52;91.77;101982.91;5033073;28;20526;-68
2023/09/07 07:41:31;;;;;;;4.40;1.90;;;;;;;20.63;91.42;101986.91;5032958;28;20442;-68
2023/09/07 07:43:58;;;;;;;4.20;2.27;;;;;;;20.74;90.17;101992.78;5033270;28;20451;-69
2023/09/07 07:46:25;;;;;;;5.00;1.93;;;;;;;20.84;89.39;101987.69;5033164;28;20537;-69
2023/09/07 07:48:51;;;;;;;5.50;2.10;;;;;;;20.93;88.44;101990.38;5032857;28;20594;-69
2023/09/07 07:51:18;;;;;;;7.20;2.73;;;;;;;21.05;86.63;101986.88;5033125;28;20524;-69
2023/09/07 07:53:44;;;;;;;3.90;2.00;;;;;;;21.13;86.21;101986.78;5033185;28;20506;-69
2023/09/07 07:56:16;;;;;;;5.77;2.37;;;;;;;21.23;85.33;101985.56;5033071;28;20513;-69
2023/09/07 07:58:44;;;;;;;3.83;1.93;;;;;;;21.29;84.26;101983.38;5032743;28;20950;-69
2023/09/07 08:01:15;;;;;;;4.23;2.30;;;;;;;21.35;81.82;101985.63;5033098;28;20470;-69
2023/09/07 08:03:41;;;;;;;3.70;1.67;;;;;;;21.41;79.39;101981.50;5033108;28;20526;-69
2023/09/07 08:06:08;;;;;;;9.90;2.30;;;;;;;21.55;79.28;101988.66;5033022;28;20543;-69
2023/09/07 08:08:34;;;;;;;3.67;1.70;;;;;;;21.68;77.77;101982.00;5033069;28;20489;-68
2023/09/07 08:11:05;;;;;;;4.03;1.73;;;;;;;21.82;76.84;101985.25;5033069;28;20518;-68
2023/09/07 08:13:32;;;;;;;6.60;1.73;;;;;;;21.97;76.44;101988.50;5033017;28;20514;-70
2023/09/07 08:16:00;;;;;;;3.73;1.83;;;;;;;22.10;76.38;101992.88;5032923;28;20537;-69
2023/09/07 08:18:27;;;;;;;3.80;1.90;;;;;;;22.24;74.74;101993.34;5032880;28;20504;-69
2023/09/07 08:20:54;;;;;;;4.23;1.77;;;;;;;22.35;74.45;101991.72;5032891;28;20447;-69
2023/09/07 08:23:22;;;;;;;4.43;2.00;;;;;;;22.44;73.92;101999.88;5032931;28;20513;-69
2023/09/07 08:25:48;;;;;;;3.70;1.83;;;;;;;22.53;74.44;101994.22;5032792;28;20463;-69
2023/09/07 08:28:15;;;;;;;7.83;2.47;;;;;;;22.62;73.56;101990.19;5032887;28;20441;-71
2023/09/07 08:30:42;;;;;;;5.07;1.97;;;;;;;22.69;72.37;101997.88;5034211;28;20453;-73
2023/09/07 08:33:10;;;;;;;3.77;1.57;;;;;;;22.77;71.47;101994.19;5036459;28;20443;-70
2023/09/07 08:35:43;;;;;;;4.27;2.00;;;;;;;22.84;70.55;101991.63;5036770;28;20459;-71
2023/09/07 08:38:10;;;;;;;4.57;2.30;;;;;;;22.94;69.33;101981.28;5036352;28;20470;-73
2023/09/07 08:40:37;;;;;;;3.70;1.70;;;;;;;23.07;69.09;101988.34;5036177;28;20951;-71
2023/09/07 08:43:05;;;;;;;3.93;1.63;;;;;;;23.16;68.79;101986.25;5036316;28;20445;-69
2023/09/07 08:45:40;;;;;;;4.93;1.80;;;;;;;23.30;67.29;101977.53;5035822;28;20447;-69
2023/09/07 08:48:08;;;;;;;2.97;1.57;;;;;;;23.41;67.56;101990.47;5036269;28;20423;-69
2023/09/07 08:50:38;;;;;;;4.30;2.13;;;;;;;23.49;66.88;101985.13;5036152;28;20432;-69
2023/09/07 08:53:04;;;;;;;3.93;1.70;;;;;;;23.59;66.23;101990.94;5035707;28;20512;-69
2023/09/07 08:55:32;;;;;;;4.67;1.80;;;;;;;23.65;65.68;101989.56;5035998;28;20478;-70
2023/09/07 08:57:58;;;;;;;2.77;1.70;;;;;;;23.77;66.09;101996.94;5035854;28;20487;-69
2023/09/07 09:00:25;;;;;;;3.97;1.70;;;;;;;23.85;63.65;101993.22;5035951;28;20439;-69
2023/09/07 09:02:54;;;;;;;7.20;1.70;;;;;;;23.96;61.79;101999.03;5035924;28;20489;-69
2023/09/07 09:05:21;;;;;;;3.10;1.40;;;;;;;24.07;62.97;102000.06;5035462;28;20923;-69
2023/09/07 09:07:49;;;;;;;3.10;1.70;;;;;;;24.13;62.37;101992.31;5035494;28;20530;-69
2023/09/07 09:10:15;;;;;;;6.43;1.53;;;;;;;24.19;63.00;101993.63;5035482;28;20822;-69
2023/09/07 09:12:48;;;;;;;4.37;2.10;;;;;;;24.31;60.81;101992.72;5035752;28;20863;-69
2023/09/07 09:15:15;;;;;;;3.83;1.67;;;;;;;24.42;60.36;101993.78;5035681;28;20463;-69
2023/09/07 09:17:42;;;;;;;3.00;1.60;;;;;;;24.50;58.89;101992.00;5035578;28;20583;-69
2023/09/07 09:20:22;;;;;;;3.63;1.70;;;;;;;24.59;56.08;101995.38;5035599;28;20446;-69
2023/09/07 09:22:52;;;;;;;3.30;1.70;;;;;;;24.70;57.08;101993.59;5035361;28;20891;-69
2023/09/07 09:25:18;;;;;;;3.13;1.40;;;;;;;24.76;57.73;101997.72;5035159;28;20927;-71
2023/09/07 09:27:45;;;;;;;4.90;1.90;;;;;;;24.81;56.57;101986.34;5035163;28;20919;-69
2023/09/07 09:30:15;;;;;;;4.43;1.57;;;;;;;24.90;57.41;101989.69;5035451;28;20435;-69
2023/09/07 09:32:42;;;;;;;3.10;1.40;;;;;;;24.92;56.95;101995.69;5035283;28;20453;-70
2023/09/07 09:35:09;;;;;;;2.87;1.47;;;;;;;25.01;56.28;101986.31;5035193;28;20450;-70
2023/09/07 09:37:43;;;;;;;4.60;1.60;;;;;;;25.05;56.65;101981.66;5035163;28;20490;-70
2023/09/07 09:40:12;;;;;;;3.73;1.80;;;;;;;25.07;54.70;101973.78;5034993;28;20502;-70
2023/09/07 09:42:40;;;;;;;3.00;1.70;;;;;;;25.14;54.14;101971.16;5035314;28;20535;-70
2023/09/07 09:45:09;;;;;;;5.53;2.10;;;;;;;25.20;55.59;101966.16;5035184;28;20443;-70
2023/09/07 09:47:40;;;;;;;3.40;1.60;;;;;;;25.26;54.91;101965.47;5035060;28;20490;-70
2023/09/07 09:50:08;;;;;;;4.50;1.70;;;;;;;25.34;54.68;101972.75;5034777;28;20510;-69
2023/09/07 09:52:36;;;;;;;3.77;1.73;;;;;;;25.38;53.34;101970.84;5034736;28;20465;-69
2023/09/07 09:55:05;;;;;;;3.23;1.50;;;;;;;25.47;53.16;101969.81;5034961;28;20447;-69
2023/09/07 09:57:34;;;;;;;4.30;2.23;;;;;;;25.51;51.79;101968.69;5034761;28;20467;-69
2023/09/07 10:00:06;;;;;;;4.60;2.13;;;;;;;25.62;51.26;101961.34;5034822;28;20469;-70
2023/09/07 10:02:35;;;;;;;4.63;2.00;;;;;;;25.75;51.77;101970.28;5034818;28;20428;-70
2023/09/07 10:05:06;;;;;;;3.87;2.37;;;;;;;25.88;51.95;101962.59;5034418;28;20447;-70
2023/09/07 10:07:42;;;;;;;4.43;2.07;;;;;;;26.05;50.85;101958.50;5034689;28;20541;-70
2023/09/07 10:10:10;;;;;;;5.67;2.40;;;;;;;26.10;50.82;101955.38;5034745;28;20501;-70
2023/09/07 10:12:42;;;;;;;3.40;1.73;;;;;;;26.22;51.59;101957.16;5034276;28;20531;-70
2023/09/07 10:15:21;;;;;;;3.43;1.70;;;;;;;26.26;51.53;101961.59;5034481;28;20929;-70
2023/09/07 10:17:50;;;;;;;4.97;2.37;;;;;;;26.29;51.28;101962.78;5034608;28;21042;-70
2023/09/07 10:20:16;;;;;;;4.17;2.20;;;;;;;26.34;48.85;101959.69;5034531;28;20843;-70
2023/09/07 10:22:43;;;;;;;3.23;1.63;;;;;;;26.41;50.57;101965.34;5034409;28;20537;-70
2023/09/07 10:25:20;;;;;;;4.57;1.90;;;;;;;26.46;51.90;101967.84;5034401;28;20461;-71
2023/09/07 10:27:48;;;;;;;3.80;2.10;;;;;;;26.50;48.38;101974.25;5034376;28;20447;-70
2023/09/07 10:30:18;;;;;;;3.43;2.00;;;;;;;26.69;47.01;101967.72;5034225;28;20439;-69
2023/09/07 10:32:46;;;;;;;3.80;2.00;;;;;;;26.79;48.37;101967.09;5034181;28;20432;-70
2023/09/07 10:35:16;;;;;;;3.63;1.63;;;;;;;26.84;47.84;101963.16;5034181;28;20538;-69
2023/09/07 10:37:46;;;;;;;4.70;2.23;;;;;;;26.92;47.19;101962.06;5033686;28;20515;-69
2023/09/07 10:40:14;;;;;;;3.93;2.00;;;;;;;27.00;49.42;101963.72;5033767;28;20431;-70
2023/09/07 10:42:41;;;;;;;3.20;1.57;;;;;;;27.06;46.29;101955.88;5033720;28;20440;-70
2023/09/07 10:45:16;;;;;;;3.83;2.53;;;;;;;27.17;47.39;101951.22;5033764;28;21007;-70
2023/09/07 10:47:43;;;;;;;5.30;2.00;;;;;;;27.31;46.87;101956.94;5033988;28;20419;-69
2023/09/07 10:50:12;;;;;;;4.10;2.00;;;;;;;27.45;46.26;101955.47;5033608;28;20538;-70
2023/09/07 10:52:39;;;;;;;3.93;1.53;;;;;;;27.58;46.84;101952.03;5033412;28;20486;-73
2023/09/07 10:55:07;;;;;;;3.70;2.00;;;;;;;27.67;46.64;101960.88;5033500;28;20884;-74
2023/09/07 10:57:42;;;;;;;3.60;1.93;;;;;;;27.87;44.38;101955.88;5034587;28;20497;-69
2023/09/07 11:00:10;;;;;;;3.23;1.67;;;;;;;28.00;44.88;101956.34;5033768;28;20433;-70
2023/09/07 11:02:39;;;;;;;4.67;2.27;;;;;;;28.12;43.85;101955.25;5033730;28;20450;-69
2023/09/07 11:05:06;;;;;;;3.03;1.10;;;;;;;28.23;44.19;101958.88;5033704;28;20439;-70
2023/09/07 11:07:33;;;;;;;2.93;1.33;;;;;;;28.34;43.97;101954.19;5033491;28;20491;-69
2023/09/07 11:10:00;;;;;;;3.10;1.70;;;;;;;28.49;43.50;101945.91;5033645;28;20434;-71
2023/09/07 11:12:26;;;;;;;4.00;2.00;;;;;;;28.73;42.81;101936.88;5033919;28;20471;-70
2023/09/07 11:14:54;;;;;;;4.40;2.17;;;;;;;29.21;43.63;101935.78;5033537;28;20526;-70
2023/09/07 11:17:27;;;;;;;3.53;1.77;;;;;;;29.82;42.83;101931.06;5033474;28;20500;-69
2023/09/07 11:19:55;;;;;;;3.53;1.83;;;;;;;30.49;40.35;101940.50;5033508;28;20510;-71
2023/09/07 11:22:22;;;;;;;3.43;1.50;;;;;;;31.13;40.45;101940.19;5033480;28;20493;-70